sensor_id;sensor_type;location;lat;lon;timestamp;pressure;altitude;pressure_sealevel;temperature;humidity
25510;BME280;13413;52.336;21.200;2023-02-28T00:01:02;101986.95;;;1.83;49.76
25510;BME280;13413;52.336;21.200;2023-02-28T00:03:56;101988.86;;;1.73;49.98
25510;BME280;13413;52.336;21.200;2023-02-28T00:06:51;101990.05;;;1.66;50.10
25510;BME280;13413;52.336;21.200;2023-02-28T00:09:45;101992.20;;;1.65;50.17
25510;BME280;13413;52.336;21.200;2023-02-28T00:12:39;101992.10;;;1.64;50.23
25510;BME280;13413;52.336;21.200;2023-02-28T00:15:33;101992.84;;;1.60;50.11
25510;BME280;13413;52.336;21.200;2023-02-28T00:18:27;101993.05;;;1.52;50.11
25510;BME280;13413;52.336;21.200;2023-02-28T00:21:22;101997.45;;;1.45;50.25
25510;BME280;13413;52.336;21.200;2023-02-28T00:24:16;101997.89;;;1.43;50.46
25510;BME280;13413;52.336;21.200;2023-02-28T00:27:10;101996.30;;;1.40;50.28
25510;BME280;13413;52.336;21.200;2023-02-28T00:30:08;102000.65;;;1.36;50.37
25510;BME280;13413;52.336;21.200;2023-02-28T00:33:02;101999.15;;;1.28;50.44
25510;BME280;13413;52.336;21.200;2023-02-28T00:39:01;102000.28;;;1.16;50.57
25510;BME280;13413;52.336;21.200;2023-02-28T00:41:55;102000.95;;;1.09;50.48
25510;BME280;13413;52.336;21.200;2023-02-28T00:44:49;102000.52;;;1.04;50.90
25510;BME280;13413;52.336;21.200;2023-02-28T00:47:43;101998.24;;;0.97;50.74
25510;BME280;13413;52.336;21.200;2023-02-28T00:50:37;101995.06;;;0.95;51.09
25510;BME280;13413;52.336;21.200;2023-02-28T00:53:29;101997.36;;;1.01;50.93
25510;BME280;13413;52.336;21.200;2023-02-28T01:03:00;101997.77;;;1.14;50.86
25510;BME280;13413;52.336;21.200;2023-02-28T01:05:53;101998.80;;;1.14;51.00
25510;BME280;13413;52.336;21.200;2023-02-28T01:08:47;101999.15;;;1.14;51.04
25510;BME280;13413;52.336;21.200;2023-02-28T01:11:42;101997.42;;;1.14;51.09
25510;BME280;13413;52.336;21.200;2023-02-28T01:14:37;102000.70;;;1.14;51.18
25510;BME280;13413;52.336;21.200;2023-02-28T01:17:30;101997.36;;;1.15;51.31
25510;BME280;13413;52.336;21.200;2023-02-28T01:20:25;101994.15;;;1.13;51.38
25510;BME280;13413;52.336;21.200;2023-02-28T01:23:19;101995.86;;;1.14;51.38
25510;BME280;13413;52.336;21.200;2023-02-28T01:26:34;102004.52;;;1.12;51.43
25510;BME280;13413;52.336;21.200;2023-02-28T01:29:28;102005.55;;;1.12;51.52
25510;BME280;13413;52.336;21.200;2023-02-28T01:32:22;102006.84;;;1.17;51.67
25510;BME280;13413;52.336;21.200;2023-02-28T01:35:19;102006.20;;;1.16;51.19
25510;BME280;13413;52.336;21.200;2023-02-28T01:38:12;102004.23;;;1.10;51.29
25510;BME280;13413;52.336;21.200;2023-02-28T01:41:07;102003.30;;;1.04;51.24
25510;BME280;13413;52.336;21.200;2023-02-28T01:44:03;102004.67;;;1.01;51.37
25510;BME280;13413;52.336;21.200;2023-02-28T01:46:57;101999.35;;;0.96;51.17
25510;BME280;13413;52.336;21.200;2023-02-28T01:49:52;102000.86;;;0.83;51.35
25510;BME280;13413;52.336;21.200;2023-02-28T01:52:48;102000.09;;;0.77;51.69
25510;BME280;13413;52.336;21.200;2023-02-28T01:55:44;102005.08;;;0.78;51.64
25510;BME280;13413;52.336;21.200;2023-02-28T01:58:40;102006.59;;;0.79;51.58
25510;BME280;13413;52.336;21.200;2023-02-28T02:01:35;102006.34;;;0.81;51.70
25510;BME280;13413;52.336;21.200;2023-02-28T02:04:36;102005.11;;;0.85;51.60
25510;BME280;13413;52.336;21.200;2023-02-28T02:07:33;102000.30;;;0.83;51.83
25510;BME280;13413;52.336;21.200;2023-02-28T02:10:31;102000.70;;;0.82;51.58
25510;BME280;13413;52.336;21.200;2023-02-28T02:13:40;102000.70;;;0.79;51.71
25510;BME280;13413;52.336;21.200;2023-02-28T02:16:49;101999.05;;;0.73;51.88
25510;BME280;13413;52.336;21.200;2023-02-28T02:23:41;101999.89;;;0.77;52.09
25510;BME280;13413;52.336;21.200;2023-02-28T02:26:54;102003.01;;;0.78;52.05
25510;BME280;13413;52.336;21.200;2023-02-28T02:30:04;102002.16;;;0.74;52.17
25510;BME280;13413;52.336;21.200;2023-02-28T02:33:14;102005.66;;;0.66;51.88
25510;BME280;13413;52.336;21.200;2023-02-28T02:36:15;102007.29;;;0.50;51.94
25510;BME280;13413;52.336;21.200;2023-02-28T02:39:17;102013.19;;;0.46;51.94
25510;BME280;13413;52.336;21.200;2023-02-28T02:42:23;102015.42;;;0.47;52.08
25510;BME280;13413;52.336;21.200;2023-02-28T02:45:21;102015.99;;;0.50;52.62
25510;BME280;13413;52.336;21.200;2023-02-28T02:48:19;102014.66;;;0.52;52.23
25510;BME280;13413;52.336;21.200;2023-02-28T02:51:16;102019.98;;;0.54;52.37
25510;BME280;13413;52.336;21.200;2023-02-28T02:54:13;102019.85;;;0.57;52.38
25510;BME280;13413;52.336;21.200;2023-02-28T02:57:13;102016.76;;;0.60;52.06
25510;BME280;13413;52.336;21.200;2023-02-28T03:00:11;102017.27;;;0.56;52.07
25510;BME280;13413;52.336;21.200;2023-02-28T03:03:07;102017.02;;;0.54;52.43
25510;BME280;13413;52.336;21.200;2023-02-28T03:06:03;102018.58;;;0.54;52.41
25510;BME280;13413;52.336;21.200;2023-02-28T03:08:58;102016.69;;;0.50;51.98
25510;BME280;13413;52.336;21.200;2023-02-28T03:11:54;102019.64;;;0.38;52.10
25510;BME280;13413;52.336;21.200;2023-02-28T03:14:58;102014.90;;;0.35;52.18
25510;BME280;13413;52.336;21.200;2023-02-28T03:23:16;102013.92;;;0.34;52.76
25510;BME280;13413;52.336;21.200;2023-02-28T03:26:14;102014.08;;;0.39;52.79
25510;BME280;13413;52.336;21.200;2023-02-28T03:29:18;102015.58;;;0.44;52.84
25510;BME280;13413;52.336;21.200;2023-02-28T03:32:20;102022.16;;;0.44;52.38
25510;BME280;13413;52.336;21.200;2023-02-28T03:35:21;102022.17;;;0.44;52.66
25510;BME280;13413;52.336;21.200;2023-02-28T03:38:20;102024.96;;;0.44;52.45
25510;BME280;13413;52.336;21.200;2023-02-28T03:41:19;102024.96;;;0.36;52.22
25510;BME280;13413;52.336;21.200;2023-02-28T03:44:17;102025.48;;;0.25;52.17
25510;BME280;13413;52.336;21.200;2023-02-28T03:47:15;102026.09;;;0.23;52.59
25510;BME280;13413;52.336;21.200;2023-02-28T03:50:13;102026.20;;;0.24;52.25
25510;BME280;13413;52.336;21.200;2023-02-28T03:53:11;102032.73;;;0.19;52.10
25510;BME280;13413;52.336;21.200;2023-02-28T03:56:13;102030.30;;;0.19;52.34
25510;BME280;13413;52.336;21.200;2023-02-28T03:59:14;102033.67;;;0.17;52.19
25510;BME280;13413;52.336;21.200;2023-02-28T04:02:09;102030.05;;;0.05;52.26
25510;BME280;13413;52.336;21.200;2023-02-28T04:05:04;102033.60;;;0.03;52.61
25510;BME280;13413;52.336;21.200;2023-02-28T04:08:06;102030.70;;;0.06;52.98
25510;BME280;13413;52.336;21.200;2023-02-28T04:11:04;102028.39;;;0.11;52.91
25510;BME280;13413;52.336;21.200;2023-02-28T04:14:00;102029.05;;;0.11;52.96
25510;BME280;13413;52.336;21.200;2023-02-28T04:16:54;102028.58;;;0.10;52.69
25510;BME280;13413;52.336;21.200;2023-02-28T04:19:48;102026.39;;;0.01;52.48
25510;BME280;13413;52.336;21.200;2023-02-28T04:22:42;102029.63;;;-0.02;52.64
25510;BME280;13413;52.336;21.200;2023-02-28T04:25:35;102028.63;;;-0.03;52.52
25510;BME280;13413;52.336;21.200;2023-02-28T04:28:30;102032.55;;;-0.13;52.50
25510;BME280;13413;52.336;21.200;2023-02-28T04:31:24;102032.92;;;-0.14;52.68
25510;BME280;13413;52.336;21.200;2023-02-28T04:34:18;102034.96;;;-0.13;52.55
25510;BME280;13413;52.336;21.200;2023-02-28T04:37:11;102032.50;;;-0.16;52.76
25510;BME280;13413;52.336;21.200;2023-02-28T04:40:08;102034.68;;;-0.18;52.58
25510;BME280;13413;52.336;21.200;2023-02-28T04:43:01;102037.23;;;-0.20;52.73
25510;BME280;13413;52.336;21.200;2023-02-28T04:45:56;102035.69;;;-0.25;52.61
25510;BME280;13413;52.336;21.200;2023-02-28T04:48:51;102033.63;;;-0.29;52.87
25510;BME280;13413;52.336;21.200;2023-02-28T04:51:45;102035.85;;;-0.29;52.95
25510;BME280;13413;52.336;21.200;2023-02-28T04:54:54;102037.90;;;-0.24;53.12
25510;BME280;13413;52.336;21.200;2023-02-28T04:57:47;102041.36;;;-0.16;53.24
25510;BME280;13413;52.336;21.200;2023-02-28T05:00:41;102041.30;;;-0.14;53.04
25510;BME280;13413;52.336;21.200;2023-02-28T05:03:35;102046.60;;;-0.16;53.31
25510;BME280;13413;52.336;21.200;2023-02-28T05:06:31;102042.38;;;-0.11;53.14
25510;BME280;13413;52.336;21.200;2023-02-28T05:09:26;102046.55;;;-0.11;53.00
25510;BME280;13413;52.336;21.200;2023-02-28T05:12:20;102052.27;;;-0.07;53.05
25510;BME280;13413;52.336;21.200;2023-02-28T05:15:15;102050.50;;;-0.06;52.98
25510;BME280;13413;52.336;21.200;2023-02-28T05:18:11;102058.27;;;-0.13;53.10
25510;BME280;13413;52.336;21.200;2023-02-28T05:21:05;102061.35;;;-0.12;53.13
25510;BME280;13413;52.336;21.200;2023-02-28T05:23:58;102069.29;;;-0.14;52.79
25510;BME280;13413;52.336;21.200;2023-02-28T05:26:54;102072.75;;;-0.26;52.55
25510;BME280;13413;52.336;21.200;2023-02-28T05:29:48;102078.92;;;-0.36;52.95
25510;BME280;13413;52.336;21.200;2023-02-28T05:32:42;102083.58;;;-0.35;53.15
25510;BME280;13413;52.336;21.200;2023-02-28T05:35:34;102087.59;;;-0.27;53.37
25510;BME280;13413;52.336;21.200;2023-02-28T05:43:13;102094.50;;;-0.18;53.27
25510;BME280;13413;52.336;21.200;2023-02-28T05:46:09;102094.06;;;-0.16;53.12
25510;BME280;13413;52.336;21.200;2023-02-28T05:49:04;102097.23;;;-0.21;53.07
25510;BME280;13413;52.336;21.200;2023-02-28T05:51:57;102099.86;;;-0.18;53.06
25510;BME280;13413;52.336;21.200;2023-02-28T05:54:52;102097.58;;;-0.17;53.14
25510;BME280;13413;52.336;21.200;2023-02-28T05:57:46;102104.67;;;-0.12;53.45
25510;BME280;13413;52.336;21.200;2023-02-28T06:00:40;102108.19;;;-0.05;53.40
25510;BME280;13413;52.336;21.200;2023-02-28T06:03:34;102109.86;;;-0.08;53.15
25510;BME280;13413;52.336;21.200;2023-02-28T06:06:28;102107.59;;;-0.07;53.64
25510;BME280;13413;52.336;21.200;2023-02-28T06:09:22;102110.84;;;0.03;53.47
25510;BME280;13413;52.336;21.200;2023-02-28T06:12:16;102112.38;;;0.07;53.42
25510;BME280;13413;52.336;21.200;2023-02-28T06:15:13;102114.50;;;0.06;53.24
25510;BME280;13413;52.336;21.200;2023-02-28T06:18:08;102119.48;;;0.03;53.85
25510;BME280;13413;52.336;21.200;2023-02-28T06:21:09;102120.46;;;0.09;53.58
25510;BME280;13413;52.336;21.200;2023-02-28T06:24:04;102123.19;;;0.10;53.75
25510;BME280;13413;52.336;21.200;2023-02-28T06:26:58;102119.37;;;0.14;53.86
25510;BME280;13413;52.336;21.200;2023-02-28T06:29:54;102120.45;;;0.21;53.97
25510;BME280;13413;52.336;21.200;2023-02-28T06:32:49;102115.21;;;0.30;54.15
25510;BME280;13413;52.336;21.200;2023-02-28T06:35:45;102111.63;;;0.36;54.14
25510;BME280;13413;52.336;21.200;2023-02-28T06:38:41;102105.59;;;0.47;54.11
25510;BME280;13413;52.336;21.200;2023-02-28T06:41:36;102101.98;;;0.49;54.15
25510;BME280;13413;52.336;21.200;2023-02-28T06:48:52;102085.98;;;0.79;54.34
25510;BME280;13413;52.336;21.200;2023-02-28T06:51:46;102082.84;;;0.90;54.26
25510;BME280;13413;52.336;21.200;2023-02-28T06:54:40;102081.42;;;1.03;54.38
25510;BME280;13413;52.336;21.200;2023-02-28T06:57:36;102079.04;;;1.12;54.29
25510;BME280;13413;52.336;21.200;2023-02-28T07:03:24;102070.48;;;1.34;54.46
25510;BME280;13413;52.336;21.200;2023-02-28T07:06:17;102071.88;;;1.41;54.03
25510;BME280;13413;52.336;21.200;2023-02-28T07:09:12;102074.09;;;1.43;53.83
25510;BME280;13413;52.336;21.200;2023-02-28T07:12:06;102070.61;;;1.46;53.96
25510;BME280;13413;52.336;21.200;2023-02-28T07:15:01;102070.77;;;1.57;54.22
25510;BME280;13413;52.336;21.200;2023-02-28T07:17:55;102069.31;;;1.68;54.13
25510;BME280;13413;52.336;21.200;2023-02-28T07:20:48;102068.89;;;1.76;54.13
25510;BME280;13413;52.336;21.200;2023-02-28T07:23:43;102062.35;;;1.85;53.64
25510;BME280;13413;52.336;21.200;2023-02-28T07:26:37;102065.15;;;1.96;53.90
25510;BME280;13413;52.336;21.200;2023-02-28T07:29:32;102059.92;;;2.05;53.78
25510;BME280;13413;52.336;21.200;2023-02-28T07:32:26;102058.61;;;2.16;53.62
25510;BME280;13413;52.336;21.200;2023-02-28T07:35:20;102062.95;;;2.27;53.64
25510;BME280;13413;52.336;21.200;2023-02-28T07:56:03;102067.23;;;2.08;54.06
25510;BME280;13413;52.336;21.200;2023-02-28T07:58:57;102065.88;;;3.05;51.99
25510;BME280;13413;52.336;21.200;2023-02-28T08:01:52;102061.23;;;3.16;52.12
25510;BME280;13413;52.336;21.200;2023-02-28T08:04:46;102061.11;;;3.24;51.61
25510;BME280;13413;52.336;21.200;2023-02-28T08:07:39;102062.31;;;3.28;51.45
25510;BME280;13413;52.336;21.200;2023-02-28T08:10:33;102069.97;;;3.25;51.32
25510;BME280;13413;52.336;21.200;2023-02-28T08:13:28;102069.32;;;3.33;51.34
25510;BME280;13413;52.336;21.200;2023-02-28T08:16:21;102076.15;;;3.39;50.62
25510;BME280;13413;52.336;21.200;2023-02-28T08:19:14;102072.62;;;3.43;50.55
25510;BME280;13413;52.336;21.200;2023-02-28T08:22:09;102074.02;;;3.43;50.72
25510;BME280;13413;52.336;21.200;2023-02-28T08:25:04;102076.95;;;3.52;50.83
25510;BME280;13413;52.336;21.200;2023-02-28T08:28:00;102078.55;;;3.49;50.15
25510;BME280;13413;52.336;21.200;2023-02-28T08:30:54;102084.89;;;3.48;50.59
25510;BME280;13413;52.336;21.200;2023-02-28T08:33:48;102085.79;;;3.48;49.99
25510;BME280;13413;52.336;21.200;2023-02-28T08:36:43;102082.01;;;3.44;50.15
25510;BME280;13413;52.336;21.200;2023-02-28T08:39:37;102088.31;;;3.46;49.96
25510;BME280;13413;52.336;21.200;2023-02-28T08:42:30;102090.77;;;3.55;50.33
25510;BME280;13413;52.336;21.200;2023-02-28T08:45:26;102089.11;;;3.60;49.91
25510;BME280;13413;52.336;21.200;2023-02-28T08:48:20;102087.98;;;3.61;49.85
25510;BME280;13413;52.336;21.200;2023-02-28T08:51:15;102089.95;;;3.66;49.69
25510;BME280;13413;52.336;21.200;2023-02-28T08:54:10;102090.48;;;3.72;49.89
25510;BME280;13413;52.336;21.200;2023-02-28T08:57:05;102090.73;;;3.71;49.29
25510;BME280;13413;52.336;21.200;2023-02-28T09:00:07;102089.98;;;3.78;50.00
25510;BME280;13413;52.336;21.200;2023-02-28T09:03:08;102089.16;;;4.01;50.02
25510;BME280;13413;52.336;21.200;2023-02-28T09:06:02;102090.80;;;4.20;49.36
25510;BME280;13413;52.336;21.200;2023-02-28T09:08:59;102090.88;;;4.27;49.43
25510;BME280;13413;52.336;21.200;2023-02-28T09:11:53;102093.84;;;4.47;48.97
25510;BME280;13413;52.336;21.200;2023-02-28T09:14:48;102092.68;;;4.66;48.86
25510;BME280;13413;52.336;21.200;2023-02-28T09:17:43;102092.55;;;4.68;48.23
25510;BME280;13413;52.336;21.200;2023-02-28T09:20:38;102089.64;;;4.75;48.22
25510;BME280;13413;52.336;21.200;2023-02-28T09:23:33;102086.50;;;4.98;47.95
25510;BME280;13413;52.336;21.200;2023-02-28T09:26:28;102089.98;;;5.17;47.99
25510;BME280;13413;52.336;21.200;2023-02-28T09:29:20;102089.17;;;5.45;48.09
25510;BME280;13413;52.336;21.200;2023-02-28T09:32:13;102090.05;;;5.72;47.86
25510;BME280;13413;52.336;21.200;2023-02-28T09:35:11;102090.48;;;6.05;47.64
25510;BME280;13413;52.336;21.200;2023-02-28T09:38:05;102089.92;;;6.31;47.22
25510;BME280;13413;52.336;21.200;2023-02-28T09:41:00;102089.31;;;6.52;47.30
25510;BME280;13413;52.336;21.200;2023-02-28T09:43:57;102085.21;;;6.73;47.21
25510;BME280;13413;52.336;21.200;2023-02-28T09:46:55;102085.36;;;7.10;46.97
25510;BME280;13413;52.336;21.200;2023-02-28T09:49:51;102080.90;;;7.39;46.87
25510;BME280;13413;52.336;21.200;2023-02-28T09:52:44;102089.84;;;7.61;46.15
25510;BME280;13413;52.336;21.200;2023-02-28T09:55:44;102092.44;;;7.98;46.04
25510;BME280;13413;52.336;21.200;2023-02-28T09:58:44;102090.38;;;8.30;45.97
25510;BME280;13413;52.336;21.200;2023-02-28T10:01:46;102094.31;;;8.50;44.84
25510;BME280;13413;52.336;21.200;2023-02-28T10:04:49;102096.92;;;8.70;44.88
25510;BME280;13413;52.336;21.200;2023-02-28T10:07:48;102099.42;;;8.81;43.78
25510;BME280;13413;52.336;21.200;2023-02-28T10:16:54;102101.92;;;8.65;44.34
25510;BME280;13413;52.336;21.200;2023-02-28T10:19:58;102101.81;;;8.64;44.51
25510;BME280;13413;52.336;21.200;2023-02-28T10:22:57;102090.59;;;8.72;44.24
25510;BME280;13413;52.336;21.200;2023-02-28T10:26:01;102091.65;;;8.63;43.93
25510;BME280;13413;52.336;21.200;2023-02-28T10:29:07;102090.58;;;8.77;44.24
25510;BME280;13413;52.336;21.200;2023-02-28T10:32:03;102086.91;;;9.11;44.04
25510;BME280;13413;52.336;21.200;2023-02-28T10:34:59;102083.02;;;9.50;43.73
25510;BME280;13413;52.336;21.200;2023-02-28T10:37:56;102082.99;;;9.82;42.92
25510;BME280;13413;52.336;21.200;2023-02-28T10:40:52;102077.22;;;10.12;42.87
25510;BME280;13413;52.336;21.200;2023-02-28T10:44:14;102077.63;;;10.12;41.89
25510;BME280;13413;52.336;21.200;2023-02-28T10:47:15;102072.14;;;9.91;42.22
25510;BME280;13413;52.336;21.200;2023-02-28T10:50:28;102067.45;;;9.59;42.03
25510;BME280;13413;52.336;21.200;2023-02-28T10:53:35;102068.86;;;9.61;41.54
25510;BME280;13413;52.336;21.200;2023-02-28T10:56:30;102067.22;;;9.36;41.35
25510;BME280;13413;52.336;21.200;2023-02-28T10:59:32;102062.83;;;9.49;40.88
25510;BME280;13413;52.336;21.200;2023-02-28T11:02:35;102060.06;;;9.63;40.93
25510;BME280;13413;52.336;21.200;2023-02-28T11:05:30;102054.90;;;9.71;40.50
25510;BME280;13413;52.336;21.200;2023-02-28T11:08:26;102053.04;;;10.04;40.88
25510;BME280;13413;52.336;21.200;2023-02-28T11:11:21;102049.42;;;10.50;40.80
25510;BME280;13413;52.336;21.200;2023-02-28T11:14:21;102044.33;;;10.76;39.93
25510;BME280;13413;52.336;21.200;2023-02-28T11:17:21;102035.05;;;11.02;39.66
25510;BME280;13413;52.336;21.200;2023-02-28T11:20:22;102031.06;;;10.95;40.32
25510;BME280;13413;52.336;21.200;2023-02-28T11:23:17;102025.49;;;11.33;39.20
25510;BME280;13413;52.336;21.200;2023-02-28T11:26:12;102023.79;;;11.13;38.66
25510;BME280;13413;52.336;21.200;2023-02-28T11:29:12;102024.66;;;10.60;37.98
25510;BME280;13413;52.336;21.200;2023-02-28T11:32:18;102018.63;;;10.36;38.96
25510;BME280;13413;52.336;21.200;2023-02-28T11:35:21;102010.34;;;10.67;38.91
25510;BME280;13413;52.336;21.200;2023-02-28T11:38:17;102008.54;;;11.21;39.03
25510;BME280;13413;52.336;21.200;2023-02-28T11:41:25;102009.91;;;11.31;37.27
25510;BME280;13413;52.336;21.200;2023-02-28T11:44:38;102003.15;;;10.69;37.31
25510;BME280;13413;52.336;21.200;2023-02-28T11:47:42;102005.47;;;10.79;38.34
25510;BME280;13413;52.336;21.200;2023-02-28T11:50:48;102005.98;;;11.24;37.83
25510;BME280;13413;52.336;21.200;2023-02-28T11:53:57;102006.66;;;11.14;36.36
25510;BME280;13413;52.336;21.200;2023-02-28T11:56:57;102001.37;;;10.71;37.43
25510;BME280;13413;52.336;21.200;2023-02-28T11:59:59;101992.59;;;10.96;37.26
25510;BME280;13413;52.336;21.200;2023-02-28T12:03:13;101991.59;;;11.12;37.06
25510;BME280;13413;52.336;21.200;2023-02-28T12:06:19;101988.33;;;11.23;36.56
25510;BME280;13413;52.336;21.200;2023-02-28T12:09:30;101987.90;;;11.32;36.42
25510;BME280;13413;52.336;21.200;2023-02-28T12:12:41;101984.98;;;11.46;36.40
25510;BME280;13413;52.336;21.200;2023-02-28T12:15:50;101983.92;;;11.76;36.79
25510;BME280;13413;52.336;21.200;2023-02-28T12:18:57;101974.83;;;12.16;36.18
25510;BME280;13413;52.336;21.200;2023-02-28T12:22:12;101971.48;;;12.34;35.89
25510;BME280;13413;52.336;21.200;2023-02-28T12:25:29;101971.14;;;12.37;34.77
25510;BME280;13413;52.336;21.200;2023-02-28T12:38:34;101965.27;;;11.63;35.47
25510;BME280;13413;52.336;21.200;2023-02-28T12:41:33;101967.45;;;11.94;35.02
25510;BME280;13413;52.336;21.200;2023-02-28T12:44:32;101963.40;;;12.24;35.19
25510;BME280;13413;52.336;21.200;2023-02-28T12:47:27;101957.83;;;12.56;35.13
25510;BME280;13413;52.336;21.200;2023-02-28T12:50:20;101949.58;;;12.57;34.29
25510;BME280;13413;52.336;21.200;2023-02-28T12:53:17;101949.86;;;12.70;34.52
25510;BME280;13413;52.336;21.200;2023-02-28T12:56:18;101947.36;;;12.61;34.45
25510;BME280;13413;52.336;21.200;2023-02-28T12:59:20;101940.60;;;12.39;34.54
25510;BME280;13413;52.336;21.200;2023-02-28T13:02:40;101945.40;;;12.10;33.98
25510;BME280;13413;52.336;21.200;2023-02-28T13:09:09;101940.12;;;10.92;34.37
25510;BME280;13413;52.336;21.200;2023-02-28T13:12:13;101929.13;;;11.20;35.08
25510;BME280;13413;52.336;21.200;2023-02-28T13:15:16;101921.78;;;11.74;35.08
25510;BME280;13413;52.336;21.200;2023-02-28T13:18:31;101920.30;;;12.17;34.91
25510;BME280;13413;52.336;21.200;2023-02-28T13:21:32;101913.14;;;12.37;34.36
25510;BME280;13413;52.336;21.200;2023-02-28T13:27:55;101917.05;;;11.63;34.06
25510;BME280;13413;52.336;21.200;2023-02-28T13:31:05;101910.52;;;11.76;34.34
25510;BME280;13413;52.336;21.200;2023-02-28T13:34:16;101906.67;;;12.01;33.97
25510;BME280;13413;52.336;21.200;2023-02-28T13:37:38;101904.45;;;12.01;33.98
25510;BME280;13413;52.336;21.200;2023-02-28T13:40:35;101903.45;;;12.15;34.28
25510;BME280;13413;52.336;21.200;2023-02-28T13:44:01;101896.40;;;12.29;34.39
25510;BME280;13413;52.336;21.200;2023-02-28T13:47:23;101892.91;;;12.37;33.92
25510;BME280;13413;52.336;21.200;2023-02-28T13:50:23;101889.96;;;12.24;33.88
25510;BME280;13413;52.336;21.200;2023-02-28T13:56:53;101883.75;;;11.97;33.44
25510;BME280;13413;52.336;21.200;2023-02-28T14:00:07;101883.02;;;11.49;33.34
25510;BME280;13413;52.336;21.200;2023-02-28T14:03:28;101878.23;;;11.19;34.23
25510;BME280;13413;52.336;21.200;2023-02-28T14:06:29;101881.02;;;11.38;34.17
25510;BME280;13413;52.336;21.200;2023-02-28T14:09:27;101869.76;;;11.54;33.99
25510;BME280;13413;52.336;21.200;2023-02-28T14:12:54;101866.66;;;11.47;33.43
25510;BME280;13413;52.336;21.200;2023-02-28T14:18:57;101860.31;;;11.25;34.05
25510;BME280;13413;52.336;21.200;2023-02-28T14:22:04;101854.34;;;11.23;33.78
25510;BME280;13413;52.336;21.200;2023-02-28T14:25:11;101851.13;;;11.19;34.07
25510;BME280;13413;52.336;21.200;2023-02-28T14:28:17;101852.31;;;11.23;33.87
25510;BME280;13413;52.336;21.200;2023-02-28T14:31:15;101849.16;;;11.34;34.26
25510;BME280;13413;52.336;21.200;2023-02-28T14:34:31;101848.30;;;11.32;33.50
25510;BME280;13413;52.336;21.200;2023-02-28T14:37:32;101843.42;;;11.08;33.74
25510;BME280;13413;52.336;21.200;2023-02-28T14:40:29;101843.03;;;11.16;34.20
25510;BME280;13413;52.336;21.200;2023-02-28T14:43:27;101839.81;;;11.05;33.46
25510;BME280;13413;52.336;21.200;2023-02-28T14:46:22;101841.23;;;10.81;33.90
25510;BME280;13413;52.336;21.200;2023-02-28T14:49:21;101839.89;;;10.82;34.24
25510;BME280;13413;52.336;21.200;2023-02-28T14:52:24;101834.73;;;10.94;34.46
25510;BME280;13413;52.336;21.200;2023-02-28T14:55:31;101833.58;;;11.02;34.23
25510;BME280;13413;52.336;21.200;2023-02-28T14:58:27;101832.78;;;11.05;34.45
25510;BME280;13413;52.336;21.200;2023-02-28T15:01:24;101831.56;;;10.97;34.12
25510;BME280;13413;52.336;21.200;2023-02-28T15:04:22;101834.19;;;10.80;34.16
25510;BME280;13413;52.336;21.200;2023-02-28T15:07:18;101837.88;;;10.65;34.12
25510;BME280;13413;52.336;21.200;2023-02-28T15:10:18;101839.71;;;10.53;34.12
25510;BME280;13413;52.336;21.200;2023-02-28T15:13:15;101841.43;;;10.38;34.24
25510;BME280;13413;52.336;21.200;2023-02-28T15:16:23;101840.55;;;10.32;34.34
25510;BME280;13413;52.336;21.200;2023-02-28T15:19:22;101839.43;;;10.27;34.52
25510;BME280;13413;52.336;21.200;2023-02-28T15:22:20;101833.51;;;10.24;34.34
25510;BME280;13413;52.336;21.200;2023-02-28T15:25:20;101830.77;;;10.09;34.42
25510;BME280;13413;52.336;21.200;2023-02-28T15:28:18;101832.39;;;9.93;34.51
25510;BME280;13413;52.336;21.200;2023-02-28T15:31:23;101835.09;;;9.64;34.74
25510;BME280;13413;52.336;21.200;2023-02-28T15:34:22;101832.77;;;9.54;35.05
25510;BME280;13413;52.336;21.200;2023-02-28T15:37:29;101836.05;;;9.39;34.87
25510;BME280;13413;52.336;21.200;2023-02-28T15:46:31;101834.86;;;9.22;35.56
25510;BME280;13413;52.336;21.200;2023-02-28T15:49:25;101845.42;;;9.08;35.69
25510;BME280;13413;52.336;21.200;2023-02-28T15:52:38;101844.22;;;9.03;35.84
25510;BME280;13413;52.336;21.200;2023-02-28T15:55:30;101847.25;;;8.95;35.79
25510;BME280;13413;52.336;21.200;2023-02-28T15:58:25;101844.64;;;8.86;35.86
25510;BME280;13413;52.336;21.200;2023-02-28T16:01:18;101844.52;;;8.75;35.90
25510;BME280;13413;52.336;21.200;2023-02-28T16:07:23;101842.56;;;8.60;36.33
25510;BME280;13413;52.336;21.200;2023-02-28T16:10:17;101844.32;;;8.52;36.66
25510;BME280;13413;52.336;21.200;2023-02-28T16:13:12;101840.33;;;8.45;36.82
25510;BME280;13413;52.336;21.200;2023-02-28T16:16:07;101837.17;;;8.40;37.01
25510;BME280;13413;52.336;21.200;2023-02-28T16:19:01;101837.66;;;8.32;37.19
25510;BME280;13413;52.336;21.200;2023-02-28T16:22:02;101839.89;;;8.22;37.26
25510;BME280;13413;52.336;21.200;2023-02-28T16:24:56;101840.70;;;8.14;37.48
25510;BME280;13413;52.336;21.200;2023-02-28T16:27:52;101843.21;;;8.09;37.64
25510;BME280;13413;52.336;21.200;2023-02-28T16:30:54;101842.83;;;8.03;37.98
25510;BME280;13413;52.336;21.200;2023-02-28T16:33:55;101842.80;;;7.97;38.12
25510;BME280;13413;52.336;21.200;2023-02-28T16:36:49;101844.82;;;7.89;38.35
25510;BME280;13413;52.336;21.200;2023-02-28T16:39:44;101839.27;;;7.79;38.59
25510;BME280;13413;52.336;21.200;2023-02-28T16:42:39;101851.34;;;7.69;38.36
25510;BME280;13413;52.336;21.200;2023-02-28T16:45:33;101860.77;;;7.59;38.28
25510;BME280;13413;52.336;21.200;2023-02-28T16:48:27;101864.73;;;7.54;38.71
25510;BME280;13413;52.336;21.200;2023-02-28T16:51:21;101864.36;;;7.47;38.65
25510;BME280;13413;52.336;21.200;2023-02-28T16:54:15;101867.45;;;7.39;38.72